Franklin Island, Australia

2:31 AM ACST on April 24, 2018 (GMT +0930)
Encounter Bay | | Change Station

Elev 26 ft 35.56 °S, 138.60 °E | Updated 11 seconds ago

Partly Cloudy
Partly Cloudy
69.1 °F
Feels Like 69.1 °F
N
1.3
Wind Variable Wind from SW
Gusts 4.0 mph

Today
High -- | Low -- °F
--% Chance of Precip.
Yesterday
High -- | Low -- °F
Precip. -- in
Pressure 29.92 in
Visibility -9999.0 miles
Clouds
Dew Point 54 °F
Humidity 59%
Rainfall 0.00 in
Snow Depth Not available.
6:46 AM 5:40 PM
First Quarter, 59% visible
METAR YPAD 231630Z 04007KT CAVOK 22/08 Q1013 NOSIG
Pressure 29.92 in
Visibility -9999.0 miles
Clouds
Dew Point 54 °F
Humidity 59%
Rainfall 0.00 in
Snow Depth Not available.
6:46 AM 5:40 PM
First Quarter, 59% visible
METAR YPAD 231630Z 04007KT CAVOK 22/08 Q1013 NOSIG

Get Severe Weather Alerts

Thanks for signing up!

Be on the lookout for a verification email in your inbox.

You'll start receiving the daily forecast at 6 AM.

×

10-Day Weather Forecast

×

Almanac

Astronomy

Apr. 24, 2018 Rise Set
Actual Time
Civil Twilight
Nautical Twilight
Astronomical Twilight
Moon
Length of Visible Light
Length of Day
Tomorrow will be .
, % of the Moon is Illuminated

Today's Extremes

Country Highs Country Lows

Community

WunderPhotos

Category 6

Welcome to Category 6. This is the collective home for Weather Underground's featured writeups by Dr. Jeff Masters (right), Bob Henson (left), Chris Burt, and other regular contributors.

Nearby

Air Quality

  Air Quality AQ Index Pollutant
Not available.

Snow Depth

Station Depth Elevation

Earthquake Activity

City Distance Mag. Time & Date
Minimum magnitude displayed is 2.5.

Coastal Water Temperatures

Place Temperature

Stations

Nearby Weather Stations

Station Location Temp. Windchill Dew Point Humidity Wind Precip. Elev Updated Type